createdAt,value
2018-07-19T00:00:08.869Z,64.80
2018-07-19T00:03:33.303Z,65.80
2018-07-19T00:06:57.781Z,65.90
2018-07-19T00:10:22.209Z,66.50
2018-07-19T00:13:46.657Z,66.90
2018-07-19T00:17:11.088Z,67.80
2018-07-19T00:20:35.546Z,68.60
2018-07-19T00:24:00.035Z,68.80
2018-07-19T00:27:24.983Z,69.10
2018-07-19T00:30:49.411Z,69.30
2018-07-19T00:34:13.869Z,69.90
2018-07-19T00:37:38.296Z,70.00
2018-07-19T00:41:02.937Z,69.70
2018-07-19T00:44:27.392Z,70.10
2018-07-19T00:47:51.859Z,69.40
2018-07-19T00:51:16.322Z,69.20
2018-07-19T00:54:40.783Z,68.60
2018-07-19T00:58:05.368Z,69.10
2018-07-19T01:01:29.891Z,69.90
2018-07-19T01:04:54.325Z,70.10
2018-07-19T01:08:18.755Z,70.30
2018-07-19T01:11:43.219Z,70.30
2018-07-19T01:15:07.716Z,70.90
2018-07-19T01:18:32.208Z,70.90
2018-07-19T01:21:56.659Z,71.00
2018-07-19T01:25:21.092Z,70.90
2018-07-19T01:28:45.543Z,70.60
2018-07-19T01:32:10.551Z,70.00
2018-07-19T01:35:34.997Z,70.30
2018-07-19T01:38:59.424Z,69.40
2018-07-19T01:42:36.066Z,69.00
2018-07-19T01:46:00.540Z,68.90
2018-07-19T01:49:24.981Z,68.70
2018-07-19T01:52:49.425Z,68.70
2018-07-19T01:56:13.908Z,69.60
2018-07-19T01:59:38.354Z,69.10
2018-07-19T02:03:02.811Z,69.00
2018-07-19T02:06:27.300Z,68.90
2018-07-19T02:09:51.784Z,69.10
2018-07-19T02:13:16.226Z,70.00
2018-07-19T02:16:40.676Z,69.90
2018-07-19T02:20:05.193Z,70.80
2018-07-19T02:23:29.737Z,70.90
2018-07-19T02:26:54.210Z,72.20
2018-07-19T02:30:18.751Z,71.50
2018-07-19T02:33:43.190Z,70.80
2018-07-19T02:37:07.692Z,70.90
2018-07-19T02:40:32.183Z,70.60
2018-07-19T02:43:56.707Z,69.90
2018-07-19T02:47:21.115Z,70.50
2018-07-19T02:50:45.568Z,70.40
2018-07-19T02:54:10.176Z,70.50
2018-07-19T02:57:34.655Z,71.50
2018-07-19T03:00:59.125Z,71.40
2018-07-19T03:04:23.570Z,72.10
2018-07-19T03:07:48.101Z,72.20
2018-07-19T03:11:12.434Z,72.60
2018-07-19T03:14:36.875Z,72.90
2018-07-19T03:18:01.302Z,72.90
2018-07-19T03:21:25.805Z,73.00
2018-07-19T03:24:50.282Z,73.00
2018-07-19T03:28:14.733Z,72.90
2018-07-19T03:31:39.193Z,72.90
2018-07-19T03:35:03.651Z,73.30
2018-07-19T03:38:28.125Z,73.40
2018-07-19T03:41:52.570Z,73.80
2018-07-19T03:45:17.035Z,73.70
2018-07-19T03:48:41.470Z,74.50
2018-07-19T03:52:06.035Z,73.60
2018-07-19T03:55:30.505Z,74.30
2018-07-19T03:58:55.014Z,74.50
2018-07-19T04:02:19.439Z,74.10
2018-07-19T04:05:43.873Z,74.30
2018-07-19T04:09:08.862Z,74.00
2018-07-19T04:12:33.299Z,73.50
2018-07-19T04:15:57.723Z,73.70
2018-07-19T04:19:22.163Z,73.20
2018-07-19T04:22:46.692Z,73.10
2018-07-19T04:26:11.336Z,72.50
2018-07-19T04:29:35.790Z,71.90
2018-07-19T04:33:00.248Z,72.10
2018-07-19T04:36:24.714Z,72.50
2018-07-19T04:39:49.237Z,72.00
2018-07-19T04:43:13.711Z,71.70
2018-07-19T04:46:38.195Z,72.20
2018-07-19T04:50:02.622Z,71.80
2018-07-19T04:53:27.060Z,71.60
2018-07-19T04:56:51.484Z,70.90
2018-07-19T05:00:15.971Z,70.80
2018-07-19T05:03:40.436Z,70.70
2018-07-19T05:07:04.917Z,69.70
2018-07-19T05:10:29.415Z,69.90
2018-07-19T05:13:53.910Z,69.80
2018-07-19T05:17:18.358Z,68.80
2018-07-19T05:20:42.866Z,68.50
2018-07-19T05:24:07.476Z,68.10
2018-07-19T05:27:31.918Z,67.60
2018-07-19T05:30:56.389Z,68.30
2018-07-19T05:34:20.862Z,67.70
2018-07-19T05:37:45.339Z,67.10
2018-07-19T05:41:09.945Z,66.20
2018-07-19T05:44:34.389Z,65.20
2018-07-19T05:47:58.864Z,64.30
2018-07-19T05:51:23.361Z,63.10
2018-07-19T05:54:47.882Z,61.50
2018-07-19T05:58:12.367Z,61.50
2018-07-19T06:01:36.763Z,59.70
2018-07-19T06:05:01.231Z,59.60
2018-07-19T06:08:25.724Z,58.20
2018-07-19T06:11:50.196Z,56.70
2018-07-19T06:15:14.744Z,56.50
2018-07-19T06:18:39.292Z,57.60
2018-07-19T06:22:03.723Z,55.90
2018-07-19T06:25:28.197Z,56.60
2018-07-19T06:28:52.644Z,54.30
2018-07-19T06:32:17.196Z,54.50
2018-07-19T06:35:41.782Z,53.70
2018-07-19T06:39:08.455Z,55.10
2018-07-19T06:42:32.932Z,55.00
2018-07-19T06:45:57.465Z,53.70
2018-07-19T06:49:21.947Z,54.50
2018-07-19T06:52:46.401Z,55.70
2018-07-19T06:56:10.893Z,53.10
2018-07-19T06:59:35.397Z,53.30
2018-07-19T07:02:59.847Z,54.10
2018-07-19T07:06:24.306Z,53.70
2018-07-19T07:09:48.769Z,53.80
2018-07-19T07:13:13.275Z,54.20
2018-07-19T07:16:37.799Z,53.70
2018-07-19T07:20:02.255Z,53.40
2018-07-19T07:23:26.739Z,53.50
2018-07-19T07:26:51.210Z,54.00
2018-07-19T07:30:15.742Z,52.30
2018-07-19T07:33:40.240Z,51.80
2018-07-19T07:37:04.687Z,51.60
2018-07-19T07:40:29.180Z,52.10
2018-07-19T07:43:53.702Z,51.40
2018-07-19T07:47:18.229Z,51.00
2018-07-19T07:50:42.761Z,51.30
2018-07-19T07:54:07.230Z,50.60
2018-07-19T07:57:31.684Z,50.70
2018-07-19T08:00:56.164Z,50.50
2018-07-19T08:04:20.654Z,50.10
2018-07-19T08:07:45.180Z,50.40
2018-07-19T08:11:09.676Z,50.70
2018-07-19T08:14:34.243Z,48.80
2018-07-19T08:17:58.720Z,48.40
2018-07-19T08:21:23.171Z,48.50
2018-07-19T08:24:47.628Z,49.40
2018-07-19T08:28:12.116Z,48.30
2018-07-19T08:31:36.581Z,49.50
2018-07-19T08:35:01.088Z,48.10
2018-07-19T08:38:25.585Z,47.70
2018-07-19T08:41:50.052Z,49.50
2018-07-19T08:45:14.506Z,48.30
2018-07-19T08:48:38.948Z,48.30
2018-07-19T08:52:03.548Z,48.40
2018-07-19T08:55:27.998Z,48.00
2018-07-19T08:58:52.499Z,48.20
2018-07-19T09:02:17.085Z,46.80
2018-07-19T09:05:41.519Z,46.20
2018-07-19T09:09:09.094Z,46.60
2018-07-19T09:12:33.514Z,46.30
2018-07-19T09:15:57.974Z,46.80
2018-07-19T09:19:22.502Z,45.10
2018-07-19T09:22:46.961Z,45.20
2018-07-19T09:26:11.558Z,43.40
2018-07-19T09:29:35.995Z,42.70
2018-07-19T09:33:00.489Z,42.70
2018-07-19T09:36:24.969Z,41.30
2018-07-19T09:39:49.388Z,43.20
2018-07-19T09:43:13.871Z,41.60
2018-07-19T09:46:38.325Z,41.40
2018-07-19T09:50:02.792Z,40.10
2018-07-19T09:53:27.215Z,39.30
2018-07-19T09:56:51.667Z,39.30
2018-07-19T10:00:20.189Z,38.60
2018-07-19T10:07:08.831Z,37.40
2018-07-19T10:10:33.273Z,37.10
2018-07-19T10:13:57.698Z,37.50
2018-07-19T10:17:22.215Z,37.70
2018-07-19T10:20:46.682Z,35.70
2018-07-19T10:24:11.195Z,36.70
2018-07-19T10:27:35.619Z,36.10
2018-07-19T10:31:00.092Z,36.40
2018-07-19T10:34:24.589Z,35.90
2018-07-19T10:37:49.016Z,38.00
2018-07-19T10:41:13.474Z,36.00
2018-07-19T10:44:37.922Z,32.90
2018-07-19T10:48:02.459Z,31.60
2018-07-19T10:51:26.911Z,30.40
2018-07-19T10:54:51.330Z,30.30
2018-07-19T10:58:15.767Z,31.40
2018-07-19T11:01:40.221Z,31.90
2018-07-19T11:05:05.092Z,32.80
2018-07-19T11:08:29.571Z,30.50
2018-07-19T11:11:54.043Z,29.80
2018-07-19T11:15:18.507Z,28.70
2018-07-19T11:18:42.989Z,29.40
2018-07-19T11:22:07.525Z,31.10
2018-07-19T11:25:31.988Z,31.10
2018-07-19T11:28:56.425Z,29.60
2018-07-19T11:32:20.863Z,27.00
2018-07-19T11:35:45.330Z,25.90
2018-07-19T11:39:10.153Z,25.40
2018-07-19T11:42:34.594Z,23.90
2018-07-19T11:45:59.027Z,23.00
2018-07-19T11:49:23.625Z,22.90
2018-07-19T11:52:48.053Z,21.90
2018-07-19T11:56:12.541Z,22.10
2018-07-19T11:59:36.962Z,22.20
2018-07-19T12:03:01.449Z,22.00
2018-07-19T12:06:25.903Z,21.50
2018-07-19T12:09:50.361Z,21.70
2018-07-19T12:13:14.799Z,21.10
2018-07-19T12:16:39.245Z,21.10
2018-07-19T12:20:03.700Z,21.40
2018-07-19T12:23:28.130Z,20.60
2018-07-19T12:26:52.873Z,20.10
2018-07-19T12:30:17.277Z,21.00
2018-07-19T12:33:41.704Z,20.30
2018-07-19T12:37:06.140Z,20.50
2018-07-19T12:40:30.703Z,20.00
2018-07-19T12:43:55.149Z,21.00
2018-07-19T12:47:19.591Z,21.30
2018-07-19T12:50:44.049Z,20.70
2018-07-19T12:54:08.539Z,19.70
2018-07-19T12:57:32.985Z,22.20
2018-07-19T13:00:57.424Z,21.50
2018-07-19T13:04:21.846Z,21.20
2018-07-19T13:07:46.287Z,20.30
2018-07-19T13:11:10.826Z,20.40
2018-07-19T13:14:41.955Z,19.40
2018-07-19T13:18:06.395Z,18.40
2018-07-19T13:21:30.900Z,18.40
2018-07-19T13:24:55.340Z,19.40
2018-07-19T13:28:19.867Z,19.30
2018-07-19T13:31:44.338Z,18.60
2018-07-19T13:35:08.792Z,18.40
2018-07-19T13:38:33.212Z,18.80
2018-07-19T13:41:57.664Z,18.70
2018-07-19T13:45:22.115Z,20.30
2018-07-19T13:48:46.566Z,18.60
2018-07-19T13:52:11.096Z,17.40
2018-07-19T13:55:35.499Z,18.50
2018-07-19T13:58:59.982Z,17.80
2018-07-19T14:02:24.497Z,18.30
2018-07-19T14:05:48.939Z,18.80
2018-07-19T14:09:15.403Z,18.70
2018-07-19T14:12:39.852Z,18.10
2018-07-19T14:16:04.361Z,17.90
2018-07-19T14:19:28.816Z,18.40
2018-07-19T14:22:53.263Z,20.70
2018-07-19T14:26:17.735Z,21.60
2018-07-19T14:29:42.184Z,22.60
2018-07-19T14:33:06.853Z,22.70
2018-07-19T14:36:31.333Z,25.40
2018-07-19T14:39:55.769Z,23.30
2018-07-19T14:43:20.254Z,24.90
2018-07-19T14:46:44.693Z,24.30
2018-07-19T14:50:09.111Z,24.30
2018-07-19T14:53:33.507Z,25.40
2018-07-19T14:56:57.960Z,25.00
2018-07-19T15:00:22.396Z,23.50
2018-07-19T15:03:46.800Z,25.00
2018-07-19T15:07:11.258Z,24.90
2018-07-19T15:10:35.698Z,24.60
2018-07-19T15:14:00.147Z,22.40
2018-07-19T15:17:24.568Z,20.90
2018-07-19T15:20:49.038Z,22.10
2018-07-19T15:24:13.461Z,23.70
2018-07-19T15:27:37.886Z,22.60
2018-07-19T15:31:02.317Z,23.60
2018-07-19T15:34:26.783Z,23.80
2018-07-19T15:37:51.232Z,24.10
2018-07-19T15:41:15.684Z,25.70
2018-07-19T15:44:40.111Z,26.30
2018-07-19T15:48:04.663Z,25.00
2018-07-19T15:51:29.085Z,24.70
2018-07-19T15:54:53.525Z,26.20
2018-07-19T15:58:18.023Z,22.80
2018-07-19T16:01:42.474Z,22.30
2018-07-19T16:05:07.082Z,20.50
2018-07-19T16:08:31.537Z,17.80
2018-07-19T16:11:56.018Z,16.50
2018-07-19T16:15:20.442Z,17.30
2018-07-19T16:18:44.854Z,19.70
2018-07-19T16:22:09.310Z,21.30
2018-07-19T16:25:33.749Z,25.10
2018-07-19T16:28:58.206Z,25.20
2018-07-19T16:32:22.665Z,26.80
2018-07-19T16:35:47.116Z,25.80
2018-07-19T16:39:11.904Z,25.30
2018-07-19T16:42:36.329Z,26.40
2018-07-19T16:46:00.749Z,25.50
2018-07-19T16:49:25.170Z,25.50
2018-07-19T16:52:49.702Z,25.70
2018-07-19T16:56:14.141Z,24.20
2018-07-19T16:59:38.579Z,24.50
2018-07-19T17:03:03.013Z,23.90
2018-07-19T17:06:27.497Z,26.20
2018-07-19T17:09:51.925Z,26.40
2018-07-19T17:13:16.382Z,29.20
2018-07-19T17:16:40.833Z,31.10
2018-07-19T17:20:05.551Z,32.90
2018-07-19T17:23:30.361Z,30.80
2018-07-19T17:26:54.765Z,30.30
2018-07-19T17:30:19.245Z,34.80
2018-07-19T17:33:43.704Z,31.80
2018-07-19T17:37:08.137Z,34.20
2018-07-19T17:40:32.639Z,31.50
2018-07-19T17:43:57.055Z,28.90
2018-07-19T17:47:21.550Z,28.60
2018-07-19T17:50:46.042Z,28.40
2018-07-19T17:54:10.480Z,29.90
2018-07-19T17:57:34.949Z,29.70
2018-07-19T18:00:59.404Z,29.80
2018-07-19T18:04:23.926Z,32.10
2018-07-19T18:07:48.497Z,34.10
2018-07-19T18:11:12.937Z,32.90
2018-07-19T18:14:37.430Z,34.00
2018-07-19T18:18:01.887Z,33.60
2018-07-19T18:21:26.338Z,35.20
2018-07-19T18:24:50.855Z,36.20
2018-07-19T18:28:15.313Z,37.10
2018-07-19T18:31:39.758Z,36.30
2018-07-19T18:35:04.236Z,36.60
2018-07-19T18:38:28.675Z,37.00
2018-07-19T18:41:53.120Z,37.40
2018-07-19T18:45:17.555Z,38.20
2018-07-19T18:48:41.989Z,39.00
2018-07-19T18:52:06.532Z,38.70
2018-07-19T18:55:30.990Z,38.60
2018-07-19T18:58:55.410Z,39.10
2018-07-19T19:02:20.915Z,39.50
2018-07-19T19:05:45.386Z,39.60
2018-07-19T19:09:11.247Z,40.10
2018-07-19T19:12:35.713Z,40.00
2018-07-19T19:16:00.201Z,40.50
2018-07-19T19:19:24.649Z,40.60
2018-07-19T19:22:49.090Z,41.50
2018-07-19T19:26:13.536Z,42.10
2018-07-19T19:29:38.028Z,42.90
2018-07-19T19:33:02.480Z,43.40
2018-07-19T19:36:26.970Z,43.80
2018-07-19T19:39:51.438Z,44.50
2018-07-19T19:43:15.896Z,44.30
2018-07-19T19:46:40.329Z,44.80
2018-07-19T19:50:04.967Z,45.30
2018-07-19T19:53:29.434Z,44.90
2018-07-19T19:56:54.742Z,45.40
2018-07-19T20:00:19.174Z,45.90
2018-07-19T20:03:43.578Z,46.00
2018-07-19T20:07:07.985Z,46.80
2018-07-19T20:10:32.492Z,46.10
2018-07-19T20:13:56.969Z,46.10
2018-07-19T20:17:21.417Z,46.40
2018-07-19T20:20:46.013Z,46.20
2018-07-19T20:24:10.433Z,45.80
2018-07-19T20:27:34.869Z,46.30
2018-07-19T20:30:59.326Z,46.20
2018-07-19T20:34:23.766Z,47.00
2018-07-19T20:37:48.222Z,47.30
2018-07-19T20:41:12.742Z,47.60
2018-07-19T20:44:37.485Z,47.70
2018-07-19T20:48:01.922Z,48.00
2018-07-19T20:51:26.346Z,47.90
2018-07-19T20:54:50.775Z,48.20
2018-07-19T20:58:15.213Z,48.20
2018-07-19T21:01:39.677Z,48.10
2018-07-19T21:05:04.199Z,48.00
2018-07-19T21:08:28.648Z,48.60
2018-07-19T21:11:53.088Z,49.00
2018-07-19T21:15:17.529Z,49.00
2018-07-19T21:18:41.961Z,49.90
2018-07-19T21:22:06.496Z,49.60
2018-07-19T21:25:30.933Z,50.00
2018-07-19T21:28:55.355Z,49.80
2018-07-19T21:32:19.783Z,49.90
2018-07-19T21:35:44.191Z,50.20
2018-07-19T21:39:11.093Z,50.10
2018-07-19T21:42:35.520Z,50.40
2018-07-19T21:45:59.956Z,50.70
2018-07-19T21:49:24.410Z,51.20
2018-07-19T21:52:48.854Z,51.40
2018-07-19T21:56:13.324Z,51.60
2018-07-19T21:59:37.724Z,52.30
2018-07-19T22:03:02.236Z,52.40
2018-07-19T22:06:26.671Z,52.40
2018-07-19T22:09:51.067Z,52.60
2018-07-19T22:13:15.525Z,52.30
2018-07-19T22:16:40.940Z,53.10
2018-07-19T22:20:05.552Z,52.90
2018-07-19T22:23:29.995Z,53.40
2018-07-19T22:26:54.418Z,52.90
2018-07-19T22:30:18.869Z,52.60
2018-07-19T22:33:43.296Z,52.80
2018-07-19T22:37:07.712Z,52.90
2018-07-19T22:40:32.192Z,53.80
2018-07-19T22:43:56.647Z,53.00
2018-07-19T22:47:21.096Z,53.70
2018-07-19T22:54:09.682Z,54.00
2018-07-19T22:57:34.107Z,54.00
2018-07-19T23:00:58.511Z,54.70
2018-07-19T23:04:22.923Z,54.70
2018-07-19T23:07:47.359Z,54.80
2018-07-19T23:11:11.773Z,55.10
2018-07-19T23:14:36.205Z,55.30
2018-07-19T23:18:00.666Z,55.60
2018-07-19T23:21:25.094Z,56.00
2018-07-19T23:24:49.546Z,55.90
2018-07-19T23:28:13.992Z,56.30
2018-07-19T23:31:38.507Z,56.20
2018-07-19T23:35:02.965Z,56.50
2018-07-19T23:39:31.242Z,56.50
2018-07-19T23:43:02.826Z,57.30
2018-07-19T23:46:31.377Z,57.40
2018-07-19T23:49:55.792Z,57.50
2018-07-19T23:53:20.284Z,58.70
2018-07-19T23:56:44.730Z,58.20
